San Ramon, CA (94583)

3:29 AM PDT on August 20, 2014 (GMT -0700)
Summerview Court | Change Station
CLOSE
Current Station
Personal Weather Station
Location: San Ramon, CA
Elevation: 427 ft
Nearby Weather Stations

Elev 427 ft 37.76 °N, 121.95 °W | Updated 4 seconds ago

Mostly Cloudy
Mostly Cloudy
63.0 °F
Feels Like 63.0 °F
N
1.8
Wind Variable Wind from West
Gusts 3.4 mph

Today
High -- | Low -- °F
--% Chance of Precip.
Yesterday
High -- | Low -- °F
Precip. -- in
6:27 AM 7:53 PM
Waning Crescent, 22% visible
Pressure 29.84 in
Visibility 10.0 miles
Clouds Mostly Cloudy 1600 ft
Dew Point 58 °F
Humidity 83%
Rainfall 0.00 in
Snow Depth Not available.
UV 0 out of 12
Pollen 4.90 out of 12
Ozone Good
PM2.5 Good
Flu Activity Not available.
METAR KLVK 200953Z AUTO 27007KT 10SM BKN016 17/14 A2984 RMK AO2 SLP103 T01720144

More Conditions Fewer Conditions

Pressure 29.84 in
Visibility 10.0 miles
Clouds Mostly Cloudy 1600 ft
Dew Point 58 °F
Humidity 83%
Rainfall 0.00 in
Snow Depth Not available.
UV 0 out of 12
Pollen 4.90 out of 12
Ozone Good
PM2.5 Good
Flu Activity Not available.
METAR KLVK 200953Z AUTO 27007KT 10SM BKN016 17/14 A2984 RMK AO2 SLP103 T01720144

More Conditions Fewer Conditions

10-Day Weather Forecast

Almanac

Astronomy

Aug. 20, 2014 Rise Set
Actual Time 6:27 AM PDT 7:53 PM PDT
Civil Twilight 6:00 AM PDT 8:21 PM PDT
Nautical Twilight 5:27 AM PDT 8:54 PM PDT
Astronomical Twilight 4:52 AM PDT 9:29 PM PDT
Moon 2:14 AM PDT 4:41 PM PDT
Length of Visible Light 14h 21m
Length of Day
13h 26m
Tomorrow will be 2m 12s shorter.
Waning Crescent, 22% of the Moon is Illuminated
Today
Waning Crescent
Aug 25
New
Sep 2
First Quarter
Sep 8
Full
Sep 15
Last Quarter

Today's Extremes

State Highs State Lows

Community

WunderPhotos

Upload Photos

1,745,604 photos uploaded!

Nearby

Air Quality

  Air Quality AQ Index Pollutant
Yesterday Good
OZONE
Yesterday Good
PM2.5
Current Good
OZONE
Current Good
PM2.5
Wednesday Good
OZONE
Thursday Good
OZONE
Friday Good
OZONE
Saturday Good
OZONE
Sunday Good
OZONE

Snow Depth

Station Depth Elevation
Blue Lakes 0 in 8000 ft
Forestdale Creek 0 in 8029 ft
Echo Peak 1 in 7800 ft
Ebbetts Pass 0 in 8700 ft
Fallen Leaf 0 in 6300 ft

Earthquake Activity

City Distance Mag. Time & Date
King City, California 116 miles 2.7 10:26 PM PDT
2014-08-15
Kettleman City, California 158 miles 2.9 11:32 PM PDT
2014-08-14
King City, California 116 miles 2.9 8:01 PM PDT
2014-08-14
Mariposa, California 110 miles 2.5 4:54 AM PDT
2014-08-14
Minimum magnitude displayed is 2.5.

Coastal Water Temperatures

Place Temperature
No Stations Reporting

Nearby Weather Stations